createdAt,value
2023-02-25T00:01:13.717Z,13.20
2023-02-25T00:03:42.426Z,13.20
2023-02-25T00:06:13.604Z,13.30
2023-02-25T00:08:44.425Z,13.30
2023-02-25T00:11:13.896Z,13.30
2023-02-25T00:13:44.256Z,13.40
2023-02-25T00:16:12.964Z,13.40
2023-02-25T00:18:44.519Z,13.30
2023-02-25T00:21:16.169Z,13.30
2023-02-25T00:23:45.922Z,13.30
2023-02-25T00:26:14.823Z,13.30
2023-02-25T00:28:44.889Z,13.30
2023-02-25T00:31:15.574Z,13.20
2023-02-25T00:33:44.246Z,13.20
2023-02-25T00:36:13.587Z,13.20
2023-02-25T00:38:42.025Z,13.10
2023-02-25T00:41:11.957Z,13.10
2023-02-25T00:43:42.323Z,13.10
2023-02-25T00:46:12.259Z,13.10
2023-02-25T00:48:41.129Z,12.90
2023-02-25T00:51:10.352Z,12.80
2023-02-25T00:53:38.976Z,12.80
2023-02-25T00:56:08.052Z,12.80
2023-02-25T00:58:36.692Z,12.80
2023-02-25T01:01:06.414Z,12.70
2023-02-25T01:03:36.239Z,12.70
2023-02-25T01:06:05.055Z,12.70
2023-02-25T01:08:33.566Z,12.70
2023-02-25T01:11:02.363Z,12.70
2023-02-25T01:13:30.933Z,12.70
2023-02-25T01:15:59.422Z,12.70
2023-02-25T01:18:27.854Z,12.70
2023-02-25T01:20:57.963Z,12.70
2023-02-25T01:23:26.383Z,12.80
2023-02-25T01:25:54.804Z,12.70
2023-02-25T01:28:23.198Z,12.80
2023-02-25T01:30:51.736Z,12.80
2023-02-25T01:33:20.168Z,13.00
2023-02-25T01:35:48.637Z,13.20
2023-02-25T01:38:18.552Z,13.40
2023-02-25T01:40:47.033Z,13.50
2023-02-25T01:43:16.024Z,13.60
2023-02-25T01:45:44.725Z,13.70
2023-02-25T01:48:14.672Z,13.70
2023-02-25T01:50:46.007Z,13.80
2023-02-25T01:53:15.544Z,13.80
2023-02-25T01:55:45.548Z,13.80
2023-02-25T01:58:14.154Z,13.80
2023-02-25T02:00:43.002Z,13.70
2023-02-25T02:03:16.267Z,13.70
2023-02-25T02:05:49.286Z,13.70
2023-02-25T02:08:17.742Z,13.60
2023-02-25T02:10:47.855Z,13.60
2023-02-25T02:13:16.529Z,13.50
2023-02-25T02:15:50.975Z,13.60
2023-02-25T02:18:21.026Z,13.70
2023-02-25T02:20:57.164Z,13.70
2023-02-25T02:23:35.309Z,13.60
2023-02-25T02:26:27.504Z,13.60
2023-02-25T02:29:21.370Z,13.50
2023-02-25T02:31:55.854Z,13.40
2023-02-25T02:34:31.665Z,13.40
2023-02-25T02:37:05.630Z,13.40
2023-02-25T02:39:45.707Z,13.50
2023-02-25T02:42:27.602Z,13.60
2023-02-25T02:44:59.182Z,13.60
2023-02-25T02:47:31.710Z,13.80
2023-02-25T02:50:03.221Z,13.80
2023-02-25T02:52:32.371Z,13.80
2023-02-25T02:55:03.250Z,13.80
2023-02-25T02:57:33.864Z,13.80
2023-02-25T03:00:07.786Z,14.00
2023-02-25T03:02:39.453Z,14.10
2023-02-25T03:05:09.870Z,14.10
2023-02-25T03:07:42.828Z,14.00
2023-02-25T03:10:13.475Z,14.00
2023-02-25T03:12:41.947Z,14.00
2023-02-25T03:15:10.815Z,14.20
2023-02-25T03:17:43.652Z,14.30
2023-02-25T03:20:14.738Z,14.20
2023-02-25T03:22:45.476Z,14.20
2023-02-25T03:25:15.500Z,14.20
2023-02-25T03:27:45.171Z,14.20
2023-02-25T03:30:16.497Z,14.40
2023-02-25T03:32:48.935Z,14.50
2023-02-25T03:35:19.862Z,14.40
2023-02-25T03:37:50.263Z,14.40
2023-02-25T03:40:19.874Z,14.40
2023-02-25T03:42:54.294Z,14.40
2023-02-25T03:45:22.910Z,14.40
2023-02-25T03:47:54.026Z,14.50
2023-02-25T03:50:22.660Z,14.40
2023-02-25T03:52:51.107Z,14.40
2023-02-25T03:55:19.740Z,14.50
2023-02-25T03:57:51.662Z,14.50
2023-02-25T04:00:22.860Z,14.40
2023-02-25T04:02:52.956Z,14.40
2023-02-25T04:05:22.333Z,14.30
2023-02-25T04:07:50.762Z,14.30
2023-02-25T04:10:19.324Z,14.30
2023-02-25T04:12:49.952Z,14.20
2023-02-25T04:15:18.487Z,14.20
2023-02-25T04:17:46.987Z,14.20
2023-02-25T04:20:17.360Z,14.20
2023-02-25T04:22:45.833Z,14.20
2023-02-25T04:25:14.353Z,14.10
2023-02-25T04:27:42.755Z,14.20
2023-02-25T04:30:11.864Z,14.20
2023-02-25T04:32:40.334Z,14.20
2023-02-25T04:35:11.709Z,14.20
2023-02-25T04:37:41.914Z,14.30
2023-02-25T04:40:14.505Z,14.30
2023-02-25T04:42:43.025Z,14.40
2023-02-25T04:45:12.345Z,14.30
2023-02-25T04:47:40.786Z,14.30
2023-02-25T04:50:10.477Z,14.40
2023-02-25T04:52:38.868Z,14.40
2023-02-25T04:55:10.176Z,14.40
2023-02-25T04:57:42.407Z,14.40
2023-02-25T05:00:14.347Z,14.30
2023-02-25T05:02:42.907Z,14.30
2023-02-25T05:05:11.612Z,14.20
2023-02-25T05:07:40.083Z,14.20
2023-02-25T05:10:11.356Z,14.20
2023-02-25T05:12:39.823Z,14.10
2023-02-25T05:15:08.938Z,14.10
2023-02-25T05:17:37.560Z,14.20
2023-02-25T05:20:12.790Z,14.20
2023-02-25T05:22:41.560Z,14.20
2023-02-25T05:25:11.908Z,14.30
2023-02-25T05:27:40.388Z,14.30
2023-02-25T05:30:09.996Z,14.30
2023-02-25T05:32:38.908Z,14.20
2023-02-25T05:35:08.902Z,14.20
2023-02-25T05:37:37.708Z,14.20
2023-02-25T05:40:09.188Z,14.20
2023-02-25T05:42:39.136Z,14.20
2023-02-25T05:45:08.458Z,14.30
2023-02-25T05:47:37.328Z,14.20
2023-02-25T05:50:06.150Z,14.30
2023-02-25T05:52:34.666Z,14.20
2023-02-25T05:55:03.247Z,14.30
2023-02-25T05:57:31.775Z,14.20
2023-02-25T06:00:01.582Z,14.20
2023-02-25T06:02:30.042Z,14.20
2023-02-25T06:04:58.503Z,14.30
2023-02-25T06:07:26.946Z,14.30
2023-02-25T06:10:00.072Z,14.30
2023-02-25T06:12:29.417Z,14.30
2023-02-25T06:14:58.071Z,14.30
2023-02-25T06:17:27.871Z,14.40
2023-02-25T06:19:56.314Z,14.40
2023-02-25T06:22:24.737Z,14.40
2023-02-25T06:24:53.178Z,14.40
2023-02-25T06:27:21.659Z,14.40
2023-02-25T06:29:50.261Z,14.50
2023-02-25T06:32:19.683Z,14.50
2023-02-25T06:34:49.744Z,14.60
2023-02-25T06:37:18.159Z,14.60
2023-02-25T06:39:46.647Z,14.60
2023-02-25T06:42:15.091Z,14.60
2023-02-25T06:44:43.500Z,14.60
2023-02-25T06:47:11.947Z,14.60
2023-02-25T06:49:40.524Z,14.70
2023-02-25T06:52:10.622Z,14.80
2023-02-25T06:54:39.072Z,14.90
2023-02-25T06:57:07.526Z,15.00
2023-02-25T06:59:36.043Z,15.10
2023-02-25T07:02:04.524Z,15.10
2023-02-25T07:04:32.970Z,15.20
2023-02-25T07:07:01.441Z,15.20
2023-02-25T07:09:31.599Z,15.20
2023-02-25T07:12:00.381Z,15.20
2023-02-25T07:14:28.813Z,15.20
2023-02-25T07:16:57.293Z,15.20
2023-02-25T07:19:25.697Z,15.10
2023-02-25T07:21:54.144Z,15.10
2023-02-25T07:24:23.318Z,15.10
2023-02-25T07:26:53.904Z,15.20
2023-02-25T07:29:22.345Z,15.30
2023-02-25T07:31:51.021Z,15.40
2023-02-25T07:34:19.634Z,15.40
2023-02-25T07:36:48.308Z,15.40
2023-02-25T07:39:16.801Z,15.40
2023-02-25T07:41:45.509Z,15.40
2023-02-25T07:44:15.346Z,15.40
2023-02-25T07:46:43.777Z,15.40
2023-02-25T07:49:12.212Z,15.40
2023-02-25T07:51:40.682Z,15.30
2023-02-25T07:54:12.026Z,15.40
2023-02-25T07:56:40.470Z,15.40
2023-02-25T07:59:08.857Z,15.40
2023-02-25T08:01:39.733Z,15.40
2023-02-25T08:04:09.142Z,15.50
2023-02-25T08:06:38.512Z,15.40
2023-02-25T08:09:07.172Z,15.50
2023-02-25T08:11:35.664Z,15.40
2023-02-25T08:14:04.989Z,15.50
2023-02-25T08:16:33.674Z,15.50
2023-02-25T08:19:03.956Z,15.50
2023-02-25T08:21:32.801Z,15.50
2023-02-25T08:24:01.239Z,15.50
2023-02-25T08:26:29.707Z,15.50
2023-02-25T08:28:58.582Z,15.60
2023-02-25T08:31:27.506Z,15.70
2023-02-25T08:33:57.371Z,15.70
2023-02-25T08:36:28.173Z,15.70
2023-02-25T08:38:57.198Z,15.80
2023-02-25T08:41:26.279Z,15.90
2023-02-25T08:43:56.430Z,15.90
2023-02-25T08:46:25.587Z,16.00
2023-02-25T08:48:54.722Z,15.90
2023-02-25T08:51:24.312Z,16.00
2023-02-25T08:53:54.355Z,16.00
2023-02-25T08:56:22.767Z,16.00
2023-02-25T08:58:51.284Z,16.10
2023-02-25T09:01:20.972Z,16.10
2023-02-25T09:03:53.835Z,16.10
2023-02-25T09:06:23.263Z,16.10
2023-02-25T09:08:52.570Z,16.20
2023-02-25T09:11:23.136Z,16.20
2023-02-25T09:13:51.673Z,16.40
2023-02-25T09:16:20.590Z,16.30
2023-02-25T09:18:50.225Z,16.40
2023-02-25T09:21:19.456Z,16.40
2023-02-25T09:23:48.059Z,16.50
2023-02-25T09:26:16.571Z,16.50
2023-02-25T09:28:47.452Z,16.50
2023-02-25T09:31:16.142Z,16.50
2023-02-25T09:33:44.845Z,16.50
2023-02-25T09:36:14.268Z,16.50
2023-02-25T09:38:43.202Z,16.50
2023-02-25T09:41:18.070Z,16.50
2023-02-25T09:43:48.302Z,16.50
2023-02-25T09:46:18.878Z,16.50
2023-02-25T09:48:53.687Z,16.50
2023-02-25T09:51:23.606Z,16.50
2023-02-25T09:53:55.403Z,16.50
2023-02-25T09:56:26.041Z,16.50
2023-02-25T09:58:58.208Z,16.50
2023-02-25T10:01:35.279Z,16.50
2023-02-25T10:04:06.936Z,16.50
2023-02-25T10:06:37.349Z,16.50
2023-02-25T10:09:10.919Z,16.50
2023-02-25T10:11:44.576Z,16.50
2023-02-25T10:14:21.904Z,16.50
2023-02-25T10:16:54.932Z,16.50
2023-02-25T10:19:30.855Z,16.50
2023-02-25T10:22:06.435Z,16.60
2023-02-25T10:24:37.240Z,16.50
2023-02-25T10:27:11.501Z,16.50
2023-02-25T10:29:46.547Z,16.50
2023-02-25T10:32:18.273Z,16.50
2023-02-25T10:34:46.865Z,16.50
2023-02-25T10:37:18.959Z,16.50
2023-02-25T10:39:48.656Z,16.60
2023-02-25T10:42:17.461Z,16.60
2023-02-25T10:44:47.801Z,16.60
2023-02-25T10:47:19.577Z,16.60
2023-02-25T10:50:02.776Z,16.60
2023-02-25T10:52:31.261Z,16.60
2023-02-25T10:54:59.709Z,16.60
2023-02-25T10:57:29.066Z,16.60
2023-02-25T11:00:02.549Z,16.60
2023-02-25T11:02:31.767Z,16.60
2023-02-25T11:05:00.325Z,16.60
2023-02-25T11:07:34.294Z,16.60
2023-02-25T11:10:24.007Z,16.70
2023-02-25T11:12:53.874Z,16.70
2023-02-25T11:15:44.051Z,16.80
2023-02-25T11:18:19.839Z,16.80
2023-02-25T11:20:50.315Z,16.80
2023-02-25T11:23:21.892Z,16.80
2023-02-25T11:25:51.517Z,16.80
2023-02-25T11:28:24.199Z,16.80
2023-02-25T11:30:54.302Z,16.80
2023-02-25T11:33:25.141Z,16.80
2023-02-25T11:35:57.191Z,16.80
2023-02-25T11:38:27.483Z,16.90
2023-02-25T11:40:56.151Z,16.90
2023-02-25T11:43:25.232Z,17.00
2023-02-25T11:46:00.673Z,17.00
2023-02-25T11:48:31.078Z,17.10
2023-02-25T11:51:03.336Z,17.20
2023-02-25T11:53:47.746Z,17.20
2023-02-25T11:56:21.531Z,17.20
2023-02-25T11:58:53.553Z,17.30
2023-02-25T12:01:30.757Z,17.40
2023-02-25T12:04:09.421Z,17.50
2023-02-25T12:06:47.904Z,17.40
2023-02-25T12:09:46.257Z,17.50
2023-02-25T12:12:25.356Z,17.50
2023-02-25T12:15:06.290Z,17.50
2023-02-25T12:17:52.358Z,17.50
2023-02-25T12:20:39.067Z,17.60
2023-02-25T12:23:26.294Z,17.50
2023-02-25T12:25:59.172Z,17.60
2023-02-25T12:28:40.937Z,17.60
2023-02-25T12:31:30.191Z,17.70
2023-02-25T12:34:11.482Z,17.70
2023-02-25T12:36:48.795Z,17.80
2023-02-25T12:39:34.970Z,17.80
2023-02-25T12:42:09.136Z,18.00
2023-02-25T12:44:45.676Z,17.90
2023-02-25T12:47:21.014Z,17.90
2023-02-25T12:50:07.773Z,17.90
2023-02-25T12:52:42.934Z,18.00
2023-02-25T12:55:23.641Z,18.00
2023-02-25T12:57:56.221Z,18.10
2023-02-25T13:00:34.099Z,18.20
2023-02-25T13:03:15.589Z,18.20
2023-02-25T13:06:04.781Z,18.20
2023-02-25T13:08:40.903Z,18.30
2023-02-25T13:11:17.106Z,18.10
2023-02-25T13:13:55.049Z,17.90
2023-02-25T13:16:28.279Z,17.80
2023-02-25T13:19:05.863Z,17.70
2023-02-25T13:21:41.068Z,17.80
2023-02-25T13:24:27.556Z,18.00
2023-02-25T13:27:10.776Z,18.00
2023-02-25T13:29:49.337Z,18.10
2023-02-25T13:32:26.723Z,18.30
2023-02-25T13:35:02.369Z,18.20
2023-02-25T13:37:38.068Z,18.20
2023-02-25T13:40:20.531Z,18.20
2023-02-25T13:43:00.899Z,18.30
2023-02-25T13:45:42.066Z,18.20
2023-02-25T13:48:23.385Z,18.20
2023-02-25T13:50:56.801Z,18.20
2023-02-25T13:53:35.044Z,18.20
2023-02-25T13:56:11.701Z,18.30
2023-02-25T13:59:00.926Z,18.30
2023-02-25T14:01:38.103Z,18.30
2023-02-25T14:04:25.437Z,18.30
2023-02-25T14:07:12.149Z,18.30
2023-02-25T14:09:44.301Z,18.30
2023-02-25T14:12:19.347Z,18.20
2023-02-25T14:15:00.731Z,18.20
2023-02-25T14:17:35.709Z,18.10
2023-02-25T14:20:16.824Z,18.10
2023-02-25T14:22:46.312Z,18.10
2023-02-25T14:25:29.678Z,18.00
2023-02-25T14:28:05.923Z,18.00
2023-02-25T14:30:39.862Z,18.00
2023-02-25T14:33:16.216Z,18.00
2023-02-25T14:35:52.109Z,18.00
2023-02-25T14:38:24.414Z,18.00
2023-02-25T14:40:57.642Z,18.00
2023-02-25T14:43:30.795Z,18.00
2023-02-25T14:46:05.653Z,17.90
2023-02-25T14:48:39.505Z,17.90
2023-02-25T14:51:28.634Z,17.80
2023-02-25T14:54:12.757Z,17.80
2023-02-25T14:56:57.849Z,17.70
2023-02-25T14:59:49.985Z,17.80
2023-02-25T15:02:42.186Z,17.90
2023-02-25T15:05:35.230Z,17.90
2023-02-25T15:08:15.029Z,17.80
2023-02-25T15:10:48.431Z,17.80
2023-02-25T15:13:31.523Z,17.70
2023-02-25T15:16:26.772Z,17.70
2023-02-25T15:19:06.586Z,17.60
2023-02-25T15:21:39.484Z,17.50
2023-02-25T15:24:12.725Z,17.60
2023-02-25T15:26:44.263Z,17.50
2023-02-25T15:29:20.928Z,17.50
2023-02-25T15:32:04.274Z,17.50
2023-02-25T15:34:36.136Z,17.30
2023-02-25T15:37:34.217Z,17.20
2023-02-25T15:40:06.853Z,17.20
2023-02-25T15:42:50.769Z,17.10
2023-02-25T15:45:36.980Z,17.10
2023-02-25T15:48:23.415Z,17.10
2023-02-25T15:50:53.343Z,17.00
2023-02-25T15:53:37.292Z,17.00
2023-02-25T15:56:32.497Z,16.90
2023-02-25T15:59:03.646Z,16.80
2023-02-25T16:01:42.785Z,16.60
2023-02-25T16:04:39.537Z,16.50
2023-02-25T16:07:08.664Z,16.50
2023-02-25T16:09:41.181Z,16.40
2023-02-25T16:12:09.901Z,16.40
2023-02-25T16:14:42.145Z,16.40
2023-02-25T16:17:16.596Z,16.50
2023-02-25T16:19:47.594Z,16.60
2023-02-25T16:22:18.033Z,16.70
2023-02-25T16:24:48.312Z,16.80
2023-02-25T16:27:21.162Z,16.90
2023-02-25T16:29:55.746Z,16.90
2023-02-25T16:32:29.322Z,16.80
2023-02-25T16:35:00.980Z,16.80
2023-02-25T16:37:34.712Z,16.80
2023-02-25T16:40:04.036Z,16.70
2023-02-25T16:42:33.439Z,16.70
2023-02-25T16:45:05.834Z,16.70
2023-02-25T16:47:36.671Z,16.60
2023-02-25T16:50:07.937Z,16.70
2023-02-25T16:52:38.912Z,16.70
2023-02-25T16:55:12.409Z,16.70
2023-02-25T16:57:41.298Z,16.70
2023-02-25T17:00:17.163Z,16.70
2023-02-25T17:02:47.193Z,16.60
2023-02-25T17:05:23.967Z,16.50
2023-02-25T17:07:55.257Z,16.30
2023-02-25T17:10:26.088Z,16.20
2023-02-25T17:12:54.871Z,16.00
2023-02-25T17:15:26.027Z,15.90
2023-02-25T17:17:56.639Z,15.90
2023-02-25T17:20:27.770Z,15.90
2023-02-25T17:22:57.422Z,15.80
2023-02-25T17:25:27.942Z,15.80
2023-02-25T17:27:59.024Z,15.70
2023-02-25T17:30:38.835Z,15.70
2023-02-25T17:33:07.944Z,15.70
2023-02-25T17:35:36.972Z,15.70
2023-02-25T17:38:05.611Z,15.70
2023-02-25T17:40:34.124Z,15.70
2023-02-25T17:43:22.055Z,15.70
2023-02-25T17:45:53.207Z,15.80
2023-02-25T17:48:22.833Z,15.80
2023-02-25T17:50:55.844Z,15.90
2023-02-25T17:53:39.525Z,15.90
2023-02-25T17:56:11.622Z,15.90
2023-02-25T17:58:40.104Z,15.90
2023-02-25T18:01:18.901Z,16.00
2023-02-25T18:03:47.883Z,16.00
2023-02-25T18:06:32.942Z,16.00
2023-02-25T18:09:02.872Z,16.00
2023-02-25T18:11:32.756Z,16.00
2023-02-25T18:14:02.781Z,16.00
2023-02-25T18:16:39.818Z,16.10
2023-02-25T18:19:17.719Z,16.10
2023-02-25T18:21:46.188Z,16.00
2023-02-25T18:24:23.171Z,16.00
2023-02-25T18:27:06.380Z,15.90
2023-02-25T18:29:35.250Z,15.80
2023-02-25T18:32:05.463Z,15.60
2023-02-25T18:34:33.899Z,15.40
2023-02-25T18:37:03.119Z,15.30
2023-02-25T18:39:31.493Z,15.20
2023-02-25T18:41:59.870Z,15.20
2023-02-25T18:44:28.260Z,15.10
2023-02-25T18:46:56.691Z,15.10
2023-02-25T18:49:26.554Z,15.10
2023-02-25T18:51:55.035Z,15.10
2023-02-25T18:54:23.483Z,15.10
2023-02-25T18:56:52.396Z,15.10
2023-02-25T18:59:20.846Z,15.10
2023-02-25T19:01:49.338Z,15.20
2023-02-25T19:04:18.156Z,15.20
2023-02-25T19:06:48.586Z,15.30
2023-02-25T19:09:17.011Z,15.40
2023-02-25T19:11:45.498Z,15.50
2023-02-25T19:14:20.143Z,15.60
2023-02-25T19:16:48.512Z,15.60
2023-02-25T19:19:17.368Z,15.70
2023-02-25T19:21:47.972Z,15.70
2023-02-25T19:24:16.412Z,15.80
2023-02-25T19:26:45.896Z,15.70
2023-02-25T19:29:14.335Z,15.80
2023-02-25T19:31:43.035Z,15.90
2023-02-25T19:34:11.553Z,16.00
2023-02-25T19:36:39.952Z,16.20
2023-02-25T19:39:09.816Z,16.20
2023-02-25T19:41:38.961Z,16.20
2023-02-25T19:44:07.394Z,16.20
2023-02-25T19:46:35.846Z,16.20
2023-02-25T19:49:04.258Z,16.10
2023-02-25T19:51:33.412Z,16.10
2023-02-25T19:54:01.856Z,16.00
2023-02-25T19:56:31.732Z,16.00
2023-02-25T19:59:00.162Z,15.90
2023-02-25T20:01:28.817Z,15.80
2023-02-25T20:03:57.246Z,15.70
2023-02-25T20:06:26.338Z,15.60
2023-02-25T20:08:55.942Z,15.60
2023-02-25T20:11:24.485Z,15.50
2023-02-25T20:13:54.575Z,15.40
2023-02-25T20:16:25.103Z,15.50
2023-02-25T20:18:56.417Z,15.60
2023-02-25T20:21:25.243Z,15.70
2023-02-25T20:23:54.193Z,15.70
2023-02-25T20:26:24.534Z,15.70
2023-02-25T20:28:55.113Z,15.70
2023-02-25T20:31:24.859Z,15.70
2023-02-25T20:33:54.422Z,15.70
2023-02-25T20:36:24.168Z,15.70
2023-02-25T20:38:58.998Z,15.60
2023-02-25T20:41:28.323Z,15.60
2023-02-25T20:43:58.421Z,15.60
2023-02-25T20:46:28.099Z,15.50
2023-02-25T20:48:56.878Z,15.50
2023-02-25T20:51:25.470Z,15.50
2023-02-25T20:53:54.141Z,15.50
2023-02-25T20:56:24.805Z,15.40
2023-02-25T20:58:54.803Z,15.40
2023-02-25T21:01:24.690Z,15.40
2023-02-25T21:03:53.318Z,15.40
2023-02-25T21:06:23.115Z,15.30
2023-02-25T21:08:51.920Z,15.30
2023-02-25T21:11:20.299Z,15.20
2023-02-25T21:13:48.720Z,15.20
2023-02-25T21:16:17.779Z,15.20
2023-02-25T21:18:48.111Z,15.20
2023-02-25T21:21:17.431Z,15.10
2023-02-25T21:23:45.925Z,15.10
2023-02-25T21:26:14.741Z,15.10
2023-02-25T21:28:43.745Z,15.10
2023-02-25T21:31:12.736Z,15.20
2023-02-25T21:33:41.658Z,15.20
2023-02-25T21:36:11.956Z,15.30
2023-02-25T21:38:40.757Z,15.30
2023-02-25T21:41:10.618Z,15.30
2023-02-25T21:43:39.489Z,15.30
2023-02-25T21:46:10.910Z,15.40
2023-02-25T21:48:39.940Z,15.30
2023-02-25T21:51:08.722Z,15.30
2023-02-25T21:53:38.570Z,15.30
2023-02-25T21:56:10.618Z,15.20
2023-02-25T21:58:39.318Z,15.20
2023-02-25T22:01:11.505Z,15.20
2023-02-25T22:03:39.923Z,15.30
2023-02-25T22:06:08.738Z,15.30
2023-02-25T22:08:38.997Z,15.30
2023-02-25T22:11:07.481Z,15.20
2023-02-25T22:13:35.925Z,15.20
2023-02-25T22:16:04.850Z,15.20
2023-02-25T22:18:35.173Z,15.20
2023-02-25T22:21:08.197Z,15.20
2023-02-25T22:23:37.954Z,15.20
2023-02-25T22:26:06.938Z,15.20
2023-02-25T22:28:35.927Z,15.20
2023-02-25T22:31:05.093Z,15.20
2023-02-25T22:33:34.162Z,15.30
2023-02-25T22:36:03.682Z,15.30
2023-02-25T22:38:32.611Z,15.40
2023-02-25T22:41:02.446Z,15.30
2023-02-25T22:43:31.557Z,15.40
2023-02-25T22:46:07.149Z,15.30
2023-02-25T22:48:35.805Z,15.30
2023-02-25T22:51:04.711Z,15.40
2023-02-25T22:53:33.136Z,15.30
2023-02-25T22:56:03.281Z,15.30
2023-02-25T22:58:31.944Z,15.30
2023-02-25T23:01:00.709Z,15.20
2023-02-25T23:03:29.190Z,15.20
2023-02-25T23:05:57.636Z,15.10
2023-02-25T23:08:26.051Z,15.10
2023-02-25T23:10:54.907Z,15.00
2023-02-25T23:13:24.751Z,15.00
2023-02-25T23:15:53.147Z,15.00
2023-02-25T23:18:22.045Z,15.00
2023-02-25T23:20:53.554Z,14.90
2023-02-25T23:23:22.060Z,14.90
2023-02-25T23:25:51.509Z,14.90
2023-02-25T23:28:19.951Z,14.90
2023-02-25T23:30:49.790Z,14.90
2023-02-25T23:33:18.317Z,14.90
2023-02-25T23:35:46.754Z,14.90
2023-02-25T23:38:15.160Z,15.00
2023-02-25T23:40:43.681Z,15.00
2023-02-25T23:43:12.076Z,15.00
2023-02-25T23:45:40.532Z,15.00
2023-02-25T23:48:10.513Z,14.90
2023-02-25T23:50:38.906Z,14.90
2023-02-25T23:53:07.251Z,14.90
2023-02-25T23:55:36.345Z,14.90
2023-02-25T23:58:04.771Z,14.90
